Time;durP1;ratioP1;P1;durP2;ratioP2;P2;SDS_P1;SDS_P2;PMS_P1;PMS_P2;Temp;Humidity;BMP_temperature;BMP_pressure;BME280_temperature;BME280_humidity;BME280_pressure;Samples;Min_cycle;Max_cycle;Signal;HPM_P1;HPM_P2
2022/06/15 00:00:40;;;;;;;5.07;4.67;;;17.90;67.10;;;;;;5078434;28;20416;-45
2022/06/15 00:03:06;;;;;;;4.73;4.33;;;17.90;68.00;;;;;;5077972;28;20514;-42
2022/06/15 00:05:32;;;;;;;5.50;5.00;;;17.90;68.60;;;;;;5078128;28;20423;-42
2022/06/15 00:07:58;;;;;;;5.67;5.17;;;17.80;68.60;;;;;;5077909;28;20506;-44
2022/06/15 00:10:24;;;;;;;5.30;4.80;;;17.80;69.30;;;;;;5078660;28;20183;-42
2022/06/15 00:12:49;;;;;;;6.07;5.47;;;17.90;70.00;;;;;;5078337;28;20874;-41
2022/06/15 00:15:15;;;;;;;5.63;5.00;;;17.80;69.50;;;;;;5078237;28;20216;-45
2022/06/15 00:17:41;;;;;;;5.47;4.90;;;17.80;70.00;;;;;;5078266;28;20186;-42
2022/06/15 00:20:08;;;;;;;8.53;5.20;;;17.80;70.10;;;;;;5077789;28;20427;-43
2022/06/15 00:22:33;;;;;;;5.50;5.00;;;17.70;70.80;;;;;;5077864;28;20205;-43
2022/06/15 00:24:59;;;;;;;5.63;5.10;;;17.70;71.30;;;;;;5077637;28;20673;-42
2022/06/15 00:27:25;;;;;;;4.80;4.40;;;17.60;72.30;;;;;;5078025;28;20517;-42
2022/06/15 00:29:50;;;;;;;4.50;4.10;;;17.60;73.30;;;;;;5077694;28;20234;-44
2022/06/15 00:32:16;;;;;;;6.00;5.33;;;17.60;74.10;;;;;;5078193;28;20180;-41
2022/06/15 00:34:42;;;;;;;5.43;4.93;;;17.50;74.90;;;;;;5077799;28;20220;-42
2022/06/15 00:37:08;;;;;;;6.00;5.23;;;17.50;75.50;;;;;;5077734;28;20173;-40
2022/06/15 00:39:34;;;;;;;5.67;5.20;;;17.50;75.90;;;;;;5077287;28;20429;-43
2022/06/15 00:42:00;;;;;;;6.30;5.70;;;17.50;76.60;;;;;;5077500;28;20411;-41
2022/06/15 00:44:33;;;;;;;5.83;5.33;;;17.50;77.40;;;;;;5077659;28;20709;-42
2022/06/15 00:47:14;;;;;;;6.20;5.60;;;17.50;78.10;;;;;;5077709;28;20474;-43
2022/06/15 00:49:50;;;;;;;6.47;5.87;;;17.40;78.40;;;;;;5077790;28;20744;-42
2022/06/15 00:52:28;;;;;;;5.20;4.80;;;17.40;78.70;;;;;;5077885;28;20502;-42
2022/06/15 00:54:53;;;;;;;5.10;4.70;;;17.30;79.20;;;;;;5077729;28;20731;-42
2022/06/15 00:57:20;;;;;;;6.27;5.63;;;17.30;79.80;;;;;;5077357;28;20419;-46
2022/06/15 00:59:58;;;;;;;7.17;5.73;;;17.30;79.70;;;;;;5077259;28;20434;-41
2022/06/15 01:02:25;;;;;;;6.00;5.40;;;17.20;79.60;;;;;;5077096;28;20664;-42
2022/06/15 01:04:58;;;;;;;5.43;4.93;;;17.20;79.90;;;;;;5076467;28;20526;-42
2022/06/15 01:07:41;;;;;;;4.70;4.27;;;17.10;80.20;;;;;;5076355;28;20675;-42
2022/06/15 01:10:37;;;;;;;5.60;5.10;;;17.10;79.50;;;;;;5075504;28;20437;-41
2022/06/15 01:13:18;;;;;;;5.10;4.70;;;17.00;80.20;;;;;;5075309;28;20459;-43
2022/06/15 01:15:46;;;;;;;4.93;4.53;;;17.00;80.30;;;;;;5075792;28;20870;-42
2022/06/15 01:18:19;;;;;;;4.80;4.40;;;17.00;80.50;;;;;;5075305;28;20417;-42
2022/06/15 01:20:51;;;;;;;4.93;4.53;;;16.90;81.20;;;;;;5076306;28;20823;-45
2022/06/15 01:23:41;;;;;;;5.40;4.90;;;16.90;81.90;;;;;;5076870;28;20415;-44
2022/06/15 01:26:28;;;;;;;5.40;4.90;;;16.90;81.80;;;;;;5076928;28;20865;-43
2022/06/15 01:28:56;;;;;;;5.20;4.70;;;16.90;82.50;;;;;;5076752;28;20497;-44
2022/06/15 01:31:25;;;;;;;5.37;4.60;;;17.00;82.70;;;;;;5077288;28;20403;-44
2022/06/15 01:34:08;;;;;;;4.87;4.47;;;17.00;82.30;;;;;;5077182;28;20561;-44
2022/06/15 01:36:39;;;;;;;6.20;4.60;;;17.00;81.60;;;;;;5076314;28;20472;-42
2022/06/15 01:39:27;;;;;;;5.47;5.00;;;16.90;82.00;;;;;;5076819;28;20409;-44
2022/06/15 01:42:04;;;;;;;7.33;5.20;;;16.80;82.40;;;;;;5076917;28;20705;-43
2022/06/15 01:44:37;;;;;;;4.90;4.50;;;16.80;82.50;;;;;;5076990;28;20578;-42
2022/06/15 01:47:07;;;;;;;5.20;4.70;;;16.70;83.00;;;;;;5076055;28;20419;-44
2022/06/15 01:49:41;;;;;;;5.63;5.07;;;16.80;84.00;;;;;;5075985;28;20438;-43
2022/06/15 01:52:08;;;;;;;4.93;4.50;;;16.80;84.60;;;;;;5077314;28;20694;-43
2022/06/15 01:54:42;;;;;;;5.23;4.80;;;16.80;84.70;;;;;;5075864;28;20812;-43
2022/06/15 01:57:08;;;;;;;5.97;4.80;;;16.80;84.60;;;;;;5076026;28;20431;-42
2022/06/15 01:59:45;;;;;;;6.47;4.90;;;16.80;84.50;;;;;;5075670;28;20417;-42
2022/06/15 02:02:16;;;;;;;5.30;4.90;;;16.80;84.50;;;;;;5076848;28;20467;-41
2022/06/15 02:05:08;;;;;;;4.60;4.20;;;16.80;84.30;;;;;;5077153;28;20519;-44
2022/06/15 02:07:45;;;;;;;5.80;5.30;;;16.80;84.30;;;;;;5076131;28;20753;-44
2022/06/15 02:10:20;;;;;;;5.10;4.20;;;16.70;84.80;;;;;;5077146;28;20426;-44
2022/06/15 02:12:58;;;;;;;4.87;4.33;;;16.70;85.40;;;;;;5076641;28;20430;-43
2022/06/15 02:15:28;;;;;;;6.17;5.57;;;16.70;85.40;;;;;;5076739;28;20545;-42
2022/06/15 02:17:55;;;;;;;5.10;4.70;;;16.70;85.10;;;;;;5075731;28;20445;-42
2022/06/15 02:20:28;;;;;;;5.60;5.07;;;16.70;85.20;;;;;;5076399;28;20406;-42
2022/06/15 02:22:57;;;;;;;6.10;5.50;;;16.60;85.70;;;;;;5075323;28;20446;-44
2022/06/15 02:25:28;;;;;;;5.90;5.40;;;16.60;86.60;;;;;;5092079;28;20509;-41
2022/06/15 02:27:53;;;;;;;6.40;5.00;;;16.60;86.90;;;;;;5075867;28;20829;-42
2022/06/15 02:30:22;;;;;;;5.33;4.77;;;16.50;86.90;;;;;;5075527;28;20477;-43
2022/06/15 02:32:49;;;;;;;5.33;4.83;;;16.50;87.20;;;;;;5078407;28;20261;-42
2022/06/15 02:35:17;;;;;;;5.73;5.23;;;16.50;87.20;;;;;;5095918;28;20478;-43
2022/06/15 02:37:44;;;;;;;6.63;6.00;;;16.50;87.10;;;;;;5079692;28;20502;-43
2022/06/15 02:40:15;;;;;;;6.33;5.73;;;16.50;87.30;;;;;;5079512;28;20436;-43
2022/06/15 02:42:41;;;;;;;5.57;5.17;;;16.50;87.60;;;;;;5080373;28;20830;-43
2022/06/15 02:45:31;;;;;;;6.13;5.30;;;16.40;87.30;;;;;;5079837;28;20430;-43
2022/06/15 02:47:57;;;;;;;6.03;5.53;;;16.40;87.40;;;;;;5084114;28;20456;-42
2022/06/15 02:50:28;;;;;;;5.30;4.80;;;16.30;87.70;;;;;;5080164;28;20862;-42
2022/06/15 02:52:59;;;;;;;6.10;5.50;;;16.20;87.90;;;;;;5078420;28;20452;-41
2022/06/15 02:55:26;;;;;;;6.47;4.93;;;16.20;88.00;;;;;;5078565;28;20512;-42
2022/06/15 02:58:02;;;;;;;5.90;5.03;;;16.20;88.30;;;;;;5078829;28;20432;-43
2022/06/15 03:00:28;;;;;;;6.00;5.33;;;16.20;88.10;;;;;;5079630;28;20416;-41
2022/06/15 03:02:54;;;;;;;5.90;5.30;;;16.20;86.90;;;;;;5079495;28;20434;-42
2022/06/15 03:05:19;;;;;;;5.30;4.80;;;16.20;87.80;;;;;;5079843;28;20241;-43
2022/06/15 03:07:45;;;;;;;5.70;5.20;;;16.20;88.10;;;;;;5079197;28;20598;-44
2022/06/15 03:10:10;;;;;;;5.40;4.60;;;16.20;88.40;;;;;;5079632;28;20172;-44
2022/06/15 03:12:36;;;;;;;5.53;5.03;;;16.20;88.60;;;;;;5077628;28;20186;-43
2022/06/15 03:15:02;;;;;;;5.80;5.20;;;16.20;88.80;;;;;;5078080;28;20199;-44
2022/06/15 03:17:27;;;;;;;5.30;4.80;;;16.20;88.30;;;;;;5078059;28;20562;-42
2022/06/15 03:19:53;;;;;;;5.17;4.27;;;16.10;87.60;;;;;;5078302;28;20170;-42
2022/06/15 03:22:19;;;;;;;5.53;5.03;;;16.00;87.70;;;;;;5078384;28;20185;-43
2022/06/15 03:24:45;;;;;;;5.13;4.73;;;15.90;88.70;;;;;;5079009;28;20167;-44
2022/06/15 03:27:10;;;;;;;5.10;4.53;;;15.90;89.40;;;;;;5078528;28;20703;-42
2022/06/15 03:29:36;;;;;;;5.63;5.10;;;15.90;89.90;;;;;;5078897;28;20611;-43
2022/06/15 03:32:03;;;;;;;5.83;5.30;;;15.90;90.00;;;;;;5078903;28;20276;-42
2022/06/15 03:34:28;;;;;;;6.20;5.37;;;15.90;90.00;;;;;;5079086;28;20298;-42
2022/06/15 03:36:54;;;;;;;6.10;5.60;;;15.90;89.60;;;;;;5078120;28;20539;-42
2022/06/15 03:39:20;;;;;;;5.23;4.77;;;16.00;89.50;;;;;;5076681;28;20181;-44
2022/06/15 03:41:45;;;;;;;6.47;5.87;;;16.10;89.30;;;;;;5075971;28;20225;-46
2022/06/15 03:44:11;;;;;;;5.70;5.20;;;16.10;89.30;;;;;;5073554;28;20601;-43
2022/06/15 03:46:37;;;;;;;6.57;5.90;;;16.10;89.00;;;;;;5075159;28;20211;-43
2022/06/15 03:49:03;;;;;;;6.60;6.00;;;16.10;88.80;;;;;;5075752;28;20179;-45
2022/06/15 03:51:29;;;;;;;6.20;5.70;;;16.20;88.80;;;;;;5074960;28;20442;-43
2022/06/15 03:53:54;;;;;;;5.60;5.10;;;16.20;88.50;;;;;;5075763;28;20503;-43
2022/06/15 03:56:20;;;;;;;5.87;5.37;;;16.20;88.40;;;;;;5076549;28;20531;-42
2022/06/15 03:58:46;;;;;;;6.47;5.67;;;16.20;88.50;;;;;;5078045;28;20166;-46
2022/06/15 04:01:12;;;;;;;6.60;5.93;;;16.20;88.40;;;;;;5059328;28;20925;-43
2022/06/15 04:03:38;;;;;;;5.60;5.20;;;16.30;88.70;;;;;;5074876;28;20193;-44
2022/06/15 04:06:04;;;;;;;5.80;5.30;;;16.30;89.30;;;;;;5077111;28;20539;-44
2022/06/15 04:08:42;;;;;;;6.20;5.70;;;16.30;88.10;;;;;;5074045;28;20410;-43
2022/06/15 04:11:09;;;;;;;5.53;5.03;;;16.30;88.00;;;;;;5076201;28;20497;-43
2022/06/15 04:13:36;;;;;;;5.60;5.17;;;16.40;88.30;;;;;;5075595;28;20467;-42
2022/06/15 04:16:04;;;;;;;6.53;5.87;;;16.40;88.30;;;;;;5075536;28;20405;-44
2022/06/15 04:18:30;;;;;;;5.77;5.27;;;16.40;88.20;;;;;;5074841;28;20410;-39
2022/06/15 04:20:55;;;;;;;5.70;5.20;;;16.40;88.20;;;;;;5075454;28;20502;-43
2022/06/15 04:23:22;;;;;;;5.87;5.37;;;16.50;87.70;;;;;;5074981;28;20206;-43
2022/06/15 04:25:54;;;;;;;5.10;4.60;;;16.50;87.60;;;;;;5075403;28;20187;-43
2022/06/15 04:28:21;;;;;;;5.43;4.93;;;16.60;88.30;;;;;;5081673;28;20421;-43
2022/06/15 04:30:47;;;;;;;6.57;5.40;;;16.60;87.40;;;;;;5087680;28;20458;-43
2022/06/15 04:33:13;;;;;;;5.30;4.80;;;16.70;87.10;;;;;;5086887;28;20443;-44
2022/06/15 04:35:38;;;;;;;6.23;5.63;;;16.70;87.20;;;;;;5086893;28;20185;-44
2022/06/15 04:38:05;;;;;;;5.60;5.10;;;16.80;87.10;;;;;;5087006;28;20176;-43
2022/06/15 04:40:31;;;;;;;5.10;4.60;;;16.80;86.80;;;;;;5077611;28;20183;-44
2022/06/15 04:42:57;;;;;;;6.20;5.60;;;16.90;86.60;;;;;;5076460;28;20443;-43
2022/06/15 04:45:22;;;;;;;5.37;4.87;;;16.90;86.70;;;;;;5076182;28;20181;-42
2022/06/15 04:47:48;;;;;;;5.47;4.97;;;17.00;86.70;;;;;;5076483;28;20720;-43
2022/06/15 04:50:15;;;;;;;6.00;5.50;;;17.00;86.80;;;;;;5080962;28;20245;-42
2022/06/15 04:52:42;;;;;;;6.10;5.60;;;17.20;86.90;;;;;;5085585;28;20424;-41
2022/06/15 04:55:11;;;;;;;6.17;5.33;;;17.20;86.70;;;;;;5084823;28;20483;-42
2022/06/15 04:57:37;;;;;;;6.50;5.70;;;17.40;86.70;;;;;;5082782;28;20435;-43
2022/06/15 05:00:09;;;;;;;6.17;5.57;;;17.40;86.30;;;;;;5084228;28;20709;-44
2022/06/15 05:02:34;;;;;;;5.90;5.30;;;17.50;86.10;;;;;;5083321;28;20207;-43
2022/06/15 05:05:00;;;;;;;5.40;4.90;;;17.60;85.80;;;;;;5084967;28;20690;-44
2022/06/15 05:07:26;;;;;;;6.87;6.17;;;17.70;85.70;;;;;;5083225;28;20189;-42
2022/06/15 05:09:52;;;;;;;6.30;5.70;;;17.80;85.40;;;;;;5084793;28;20421;-43
2022/06/15 05:12:18;;;;;;;5.87;5.30;;;17.80;85.00;;;;;;5084602;28;20702;-43
2022/06/15 05:14:47;;;;;;;6.47;5.80;;;17.90;84.80;;;;;;5090050;28;20214;-41
2022/06/15 05:17:23;;;;;;;6.03;5.43;;;17.90;84.60;;;;;;5093977;28;20435;-44
2022/06/15 05:19:49;;;;;;;9.50;5.90;;;18.00;84.70;;;;;;5082842;28;20421;-45
2022/06/15 05:22:15;;;;;;;6.17;5.67;;;18.00;84.60;;;;;;5084556;28;20530;-43
2022/06/15 05:24:41;;;;;;;5.90;5.23;;;18.00;84.30;;;;;;5087512;28;20188;-43
2022/06/15 05:27:07;;;;;;;7.60;6.20;;;18.10;84.50;;;;;;5083511;28;20442;-44
2022/06/15 05:29:35;;;;;;;8.87;6.40;;;18.20;84.00;;;;;;5080711;28;20462;-43
2022/06/15 05:32:02;;;;;;;5.90;5.30;;;18.30;83.70;;;;;;5074974;28;20478;-44
2022/06/15 05:34:28;;;;;;;6.60;4.90;;;18.40;83.10;;;;;;5077470;28;20556;-42
2022/06/15 05:36:54;;;;;;;5.80;5.13;;;18.50;82.60;;;;;;5086471;28;20516;-42
2022/06/15 05:39:19;;;;;;;5.43;4.93;;;18.60;81.70;;;;;;5094855;28;20438;-42
2022/06/15 05:41:45;;;;;;;5.27;4.77;;;18.70;81.80;;;;;;5095645;28;20435;-43
2022/06/15 05:46:40;;;;;;;6.03;5.50;;;18.90;80.90;;;;;;5093705;28;20223;-43
2022/06/15 05:49:06;;;;;;;7.77;5.47;;;19.10;80.60;;;;;;5093825;28;20439;-42
2022/06/15 05:51:32;;;;;;;5.90;5.07;;;19.20;80.20;;;;;;5095225;28;20436;-50
2022/06/15 05:53:58;;;;;;;7.90;4.93;;;19.30;78.10;;;;;;5092919;28;20499;-43
2022/06/15 05:56:24;;;;;;;4.73;4.33;;;19.40;77.80;;;;;;5094192;28;20214;-43
2022/06/15 05:58:50;;;;;;;8.47;5.33;;;19.60;78.10;;;;;;5094110;28;20412;-46
2022/06/15 06:01:27;;;;;;;6.90;5.10;;;19.70;76.90;;;;;;5094749;28;20250;-44
2022/06/15 06:03:53;;;;;;;7.73;5.93;;;19.80;75.50;;;;;;5094085;28;20412;-47
2022/06/15 06:06:19;;;;;;;6.77;6.00;;;19.90;75.30;;;;;;5094726;28;20454;-43
2022/06/15 06:08:45;;;;;;;6.40;5.17;;;20.00;75.60;;;;;;5095731;28;20417;-44
2022/06/15 06:11:11;;;;;;;5.93;5.03;;;20.10;74.60;;;;;;5094963;28;20176;-42
2022/06/15 06:13:36;;;;;;;13.07;6.23;;;20.20;74.30;;;;;;5077552;28;20454;-45
2022/06/15 06:16:02;;;;;;;5.03;4.53;;;20.30;73.70;;;;;;5096179;28;20197;-43
2022/06/15 06:18:28;;;;;;;6.63;5.17;;;20.50;73.40;;;;;;5096592;28;20166;-44
2022/06/15 06:20:54;;;;;;;7.57;5.30;;;20.70;72.60;;;;;;5097262;28;20191;-42
2022/06/15 06:23:20;;;;;;;6.67;4.97;;;20.80;72.80;;;;;;5096963;28;20603;-48
2022/06/15 06:25:50;;;;;;;5.93;4.50;;;21.00;71.90;;;;;;5099055;28;20410;-42
2022/06/15 06:28:29;;;;;;;7.77;5.10;;;21.20;71.40;;;;;;5098666;28;20416;-44
2022/06/15 06:30:57;;;;;;;7.10;5.13;;;21.40;71.60;;;;;;5099092;28;20473;-46
2022/06/15 06:33:24;;;;;;;5.40;4.90;;;21.50;70.90;;;;;;5099566;28;20509;-44
2022/06/15 06:35:49;;;;;;;7.43;4.90;;;21.60;70.90;;;;;;5095599;28;20573;-42
2022/06/15 06:38:15;;;;;;;4.60;4.10;;;21.70;70.80;;;;;;5096186;28;20442;-43
2022/06/15 06:40:41;;;;;;;5.67;4.83;;;21.80;69.90;;;;;;5096384;28;20479;-44
2022/06/15 06:43:07;;;;;;;5.50;5.00;;;22.00;68.90;;;;;;5097699;28;20184;-44
2022/06/15 06:45:32;;;;;;;5.50;5.00;;;22.20;68.40;;;;;;5097436;28;20450;-43
2022/06/15 06:48:00;;;;;;;5.00;4.50;;;22.30;68.30;;;;;;5095266;28;20194;-42
2022/06/15 06:50:26;;;;;;;5.07;4.20;;;22.40;66.20;;;;;;5097597;28;20172;-42
2022/06/15 06:52:52;;;;;;;4.60;4.17;;;22.50;65.90;;;;;;5099387;28;20425;-42
2022/06/15 06:55:17;;;;;;;4.70;4.30;;;22.50;66.70;;;;;;5098830;28;20461;-43
2022/06/15 06:57:43;;;;;;;6.17;4.83;;;22.70;64.20;;;;;;5098739;28;20527;-45
2022/06/15 07:00:09;;;;;;;4.70;4.30;;;22.70;63.30;;;;;;5096338;28;20179;-43
2022/06/15 07:02:35;;;;;;;4.90;4.00;;;22.90;62.90;;;;;;5096049;28;20180;-47
2022/06/15 07:05:00;;;;;;;5.20;4.70;;;23.00;61.70;;;;;;5097323;28;20872;-48
2022/06/15 07:07:26;;;;;;;4.60;4.13;;;23.10;61.60;;;;;;5095912;28;20763;-46
2022/06/15 07:09:52;;;;;;;6.60;4.47;;;23.10;60.60;;;;;;5095320;28;20177;-47
2022/06/15 07:12:17;;;;;;;5.20;4.80;;;23.20;61.20;;;;;;5096898;28;20179;-47
2022/06/15 07:14:43;;;;;;;4.70;4.30;;;23.30;61.10;;;;;;5087125;28;20306;-47
2022/06/15 07:17:09;;;;;;;4.57;4.10;;;23.50;61.20;;;;;;5075085;28;20635;-47
2022/06/15 07:19:35;;;;;;;4.67;4.27;;;23.80;61.20;;;;;;5094254;28;20467;-47
2022/06/15 07:22:00;;;;;;;5.07;4.67;;;24.00;60.10;;;;;;5077203;28;20252;-48
2022/06/15 07:24:26;;;;;;;5.67;4.77;;;24.10;61.30;;;;;;5076851;28;20248;-47
2022/06/15 07:26:52;;;;;;;5.60;4.23;;;24.20;60.90;;;;;;5076106;28;20327;-48
2022/06/15 07:29:20;;;;;;;5.97;4.80;;;24.30;61.40;;;;;;5076050;28;20320;-47
2022/06/15 07:31:52;;;;;;;6.03;4.53;;;24.60;60.00;;;;;;5093885;28;20449;-47
2022/06/15 07:34:18;;;;;;;5.10;4.67;;;24.70;59.60;;;;;;5079597;28;20522;-49
2022/06/15 07:36:48;;;;;;;4.60;4.20;;;24.70;59.20;;;;;;5096528;28;20531;-47
2022/06/15 07:39:22;;;;;;;5.33;4.53;;;24.90;59.40;;;;;;5095603;28;20625;-47
2022/06/15 07:41:48;;;;;;;5.83;5.07;;;25.20;59.00;;;;;;5095665;28;20422;-48
2022/06/15 07:44:15;;;;;;;5.00;4.60;;;25.50;58.00;;;;;;5095636;28;20527;-47
2022/06/15 07:46:41;;;;;;;5.20;4.80;;;25.70;57.00;;;;;;5095572;28;20603;-50
2022/06/15 07:51:59;;;;;;;5.17;4.70;;;25.90;56.50;;;;;;5096987;28;20181;-48
2022/06/15 07:54:26;;;;;;;6.43;4.60;;;26.10;57.20;;;;;;5096477;28;20458;-47
2022/06/15 07:56:54;;;;;;;4.90;4.40;;;26.20;56.00;;;;;;5097323;28;20439;-47
2022/06/15 07:59:20;;;;;;;5.30;4.80;;;26.30;55.60;;;;;;5094086;28;20410;-43
2022/06/15 08:01:46;;;;;;;7.80;4.90;;;26.40;55.90;;;;;;5095946;28;20419;-43
2022/06/15 08:04:13;;;;;;;6.40;5.20;;;26.60;55.90;;;;;;5096121;28;20419;-43
2022/06/15 08:06:42;;;;;;;4.93;4.50;;;26.50;53.60;;;;;;5096564;28;20429;-45
2022/06/15 08:09:09;;;;;;;5.27;4.87;;;26.60;54.60;;;;;;5096860;28;20422;-43
2022/06/15 08:11:36;;;;;;;5.07;4.63;;;26.90;54.30;;;;;;5097224;28;20434;-42
2022/06/15 08:14:03;;;;;;;5.40;4.90;;;27.20;53.30;;;;;;5097380;28;20464;-44
2022/06/15 08:16:29;;;;;;;5.57;4.93;;;27.40;53.10;;;;;;5077645;28;20435;-43
2022/06/15 08:18:56;;;;;;;5.70;4.80;;;27.70;51.60;;;;;;5094482;28;20416;-43
2022/06/15 08:21:25;;;;;;;6.70;4.27;;;28.00;50.80;;;;;;5095740;28;20172;-43
2022/06/15 08:23:53;;;;;;;5.30;4.80;;;28.30;50.20;;;;;;5095673;28;20413;-43
2022/06/15 08:26:22;;;;;;;4.60;4.20;;;28.70;49.50;;;;;;5096022;28;20424;-45
2022/06/15 08:28:52;;;;;;;5.70;4.97;;;28.90;48.90;;;;;;5094456;28;20429;-45
2022/06/15 08:31:18;;;;;;;4.77;4.37;;;29.20;48.30;;;;;;5095975;28;20459;-44
2022/06/15 08:33:44;;;;;;;5.03;4.63;;;29.50;48.40;;;;;;5094676;28;20515;-44
2022/06/15 08:36:11;;;;;;;5.63;4.13;;;29.70;46.90;;;;;;5093804;28;20410;-44
2022/06/15 08:38:37;;;;;;;5.37;4.80;;;29.80;46.70;;;;;;5095678;28;20406;-44
2022/06/15 08:41:32;;;;;;;5.10;4.57;;;29.90;45.80;;;;;;5094551;28;20620;-44
2022/06/15 08:44:13;;;;;;;5.70;5.20;;;29.50;46.10;;;;;;5088301;28;20485;-44
2022/06/15 08:46:52;;;;;;;4.87;4.37;;;29.70;46.50;;;;;;5093607;28;20423;-45
2022/06/15 08:49:43;;;;;;;4.63;4.23;;;29.90;45.30;;;;;;5096233;28;20413;-44
2022/06/15 08:52:24;;;;;;;5.30;4.80;;;30.20;45.80;;;;;;5056598;28;20500;-44
2022/06/15 08:54:56;;;;;;;5.03;4.53;;;30.60;45.30;;;;;;5094180;28;20815;-45
2022/06/15 08:57:41;;;;;;;5.43;4.40;;;30.80;45.30;;;;;;5096043;28;20704;-44
2022/06/15 09:00:21;;;;;;;4.50;4.20;;;30.90;44.30;;;;;;5095218;28;20519;-45
2022/06/15 09:03:22;;;;;;;5.07;4.50;;;31.00;43.20;;;;;;5094753;28;20769;-45
2022/06/15 09:05:54;;;;;;;6.60;4.40;;;31.10;44.00;;;;;;5075838;28;20403;-46
2022/06/15 09:08:41;;;;;;;4.90;4.40;;;31.10;42.80;;;;;;5074774;28;20791;-44
2022/06/15 09:11:06;;;;;;;5.40;4.90;;;31.30;42.50;;;;;;5074810;28;20397;-45
2022/06/15 09:13:57;;;;;;;5.20;4.13;;;31.30;41.40;;;;;;5074702;28;20467;-44
2022/06/15 09:16:25;;;;;;;5.73;4.50;;;31.40;43.00;;;;;;5073262;28;20569;-45
2022/06/15 09:19:09;;;;;;;5.43;4.53;;;31.50;42.90;;;;;;5091234;28;20429;-44
2022/06/15 09:21:50;;;;;;;6.47;4.27;;;31.70;40.70;;;;;;5090749;28;20447;-43
2022/06/15 09:24:22;;;;;;;3.93;3.63;;;31.90;39.80;;;;;;5073992;28;20818;-45
2022/06/15 09:26:54;;;;;;;4.70;4.13;;;32.10;38.70;;;;;;5089469;28;20818;-45
2022/06/15 09:29:45;;;;;;;4.30;3.67;;;32.10;38.10;;;;;;5073521;28;20475;-43
2022/06/15 09:32:18;;;;;;;4.40;4.00;;;32.40;37.10;;;;;;5069300;28;20423;-44
2022/06/15 09:35:18;;;;;;;3.80;3.40;;;32.50;36.10;;;;;;5074496;28;20466;-45
2022/06/15 09:37:49;;;;;;;4.37;3.97;;;32.80;38.10;;;;;;5072091;28;20395;-44
2022/06/15 09:40:15;;;;;;;4.70;3.87;;;33.00;37.50;;;;;;5071227;28;20394;-45
2022/06/15 09:43:06;;;;;;;3.87;3.43;;;33.30;37.80;;;;;;5076519;28;20426;-44
2022/06/15 09:45:45;;;;;;;4.63;4.23;;;33.40;36.60;;;;;;5078579;28;20714;-44
2022/06/15 09:48:35;;;;;;;4.87;4.13;;;33.60;37.00;;;;;;5095628;28;20948;-44
2022/06/15 09:51:14;;;;;;;4.23;3.13;;;33.70;36.30;;;;;;5074582;28;20403;-44
2022/06/15 09:54:10;;;;;;;3.80;3.47;;;33.70;35.50;;;;;;5093004;28;20452;-45
2022/06/15 09:56:35;;;;;;;5.70;3.40;;;33.80;33.50;;;;;;5077433;28;20431;-43
2022/06/15 09:59:05;;;;;;;3.60;3.30;;;33.70;33.70;;;;;;5074064;28;20411;-46
2022/06/15 10:01:35;;;;;;;4.17;3.87;;;33.80;34.00;;;;;;5092907;28;20280;-44
2022/06/15 10:04:03;;;;;;;4.37;3.83;;;34.10;35.00;;;;;;5091449;28;20422;-46
2022/06/15 10:06:35;;;;;;;5.20;3.90;;;34.50;35.10;;;;;;5075236;28;20438;-47
2022/06/15 10:09:06;;;;;;;4.63;3.83;;;34.80;34.40;;;;;;5091336;28;20476;-46
2022/06/15 10:11:36;;;;;;;3.57;3.27;;;35.10;34.40;;;;;;5073751;28;20435;-41
2022/06/15 10:14:29;;;;;;;5.20;3.70;;;35.10;33.70;;;;;;5076470;28;20527;-41
2022/06/15 10:17:28;;;;;;;3.90;3.37;;;35.00;34.80;;;;;;5076484;28;20832;-42
2022/06/15 10:19:56;;;;;;;5.30;3.77;;;34.90;32.80;;;;;;5067930;28;20421;-41
2022/06/15 10:22:29;;;;;;;6.40;4.33;;;34.90;32.30;;;;;;5096518;28;20471;-40
2022/06/15 10:24:57;;;;;;;4.60;3.93;;;34.90;32.70;;;;;;5097244;28;20388;-41
2022/06/15 10:27:33;;;;;;;4.73;3.77;;;35.00;33.40;;;;;;5097085;28;21005;-40
2022/06/15 10:30:08;;;;;;;4.13;3.73;;;35.30;33.30;;;;;;5096508;28;20804;-41
2022/06/15 10:32:40;;;;;;;4.40;3.80;;;35.60;33.40;;;;;;5098082;28;20427;-41
2022/06/15 10:35:18;;;;;;;4.10;3.70;;;35.70;32.10;;;;;;5079524;28;20440;-41
2022/06/15 10:37:48;;;;;;;5.07;3.20;;;36.00;33.10;;;;;;5096349;28;20877;-40
2022/06/15 10:40:35;;;;;;;3.97;3.20;;;36.30;33.60;;;;;;5094377;28;20519;-41
2022/06/15 10:43:22;;;;;;;4.83;3.27;;;36.80;31.70;;;;;;5095451;28;20433;-41
2022/06/15 10:46:02;;;;;;;3.53;3.23;;;37.00;29.80;;;;;;5095165;28;20412;-40
2022/06/15 10:48:37;;;;;;;3.87;3.53;;;36.90;31.00;;;;;;5095638;28;20419;-40
2022/06/15 10:51:15;;;;;;;4.90;3.50;;;37.00;30.30;;;;;;5094886;28;20420;-42
2022/06/15 10:53:44;;;;;;;4.70;3.70;;;37.10;31.80;;;;;;5093260;28;20454;-42
2022/06/15 11:02:18;;;;;;;6.10;3.80;;;37.40;30.60;;;;;;5095358;28;20426;-44
2022/06/15 11:04:43;;;;;;;4.20;3.80;;;37.70;29.60;;;;;;5096348;28;20415;-42
2022/06/15 11:07:26;;;;;;;4.30;3.90;;;37.80;29.80;;;;;;5096951;28;20411;-41
2022/06/15 11:09:55;;;;;;;4.07;3.77;;;37.90;29.20;;;;;;5096103;28;20180;-43
2022/06/15 11:12:25;;;;;;;4.10;3.50;;;38.10;29.60;;;;;;5097361;28;20830;-43
2022/06/15 11:14:59;;;;;;;3.93;3.63;;;38.20;30.20;;;;;;5097399;28;20456;-42
2022/06/15 11:20:33;;;;;;;3.70;3.40;;;38.90;29.40;;;;;;5096339;28;20498;-39
2022/06/15 11:23:17;;;;;;;4.40;3.77;;;39.50;29.30;;;;;;5096039;28;20677;-41
2022/06/15 11:25:47;;;;;;;4.30;3.90;;;39.60;28.10;;;;;;5097559;28;20449;-39
2022/06/15 11:28:38;;;;;;;4.10;3.80;;;39.70;28.70;;;;;;5095413;28;20433;-42
2022/06/15 11:31:12;;;;;;;5.13;3.50;;;39.60;26.90;;;;;;5094447;28;20538;-42
2022/06/15 11:33:44;;;;;;;4.53;3.27;;;39.40;28.60;;;;;;5094959;28;20409;-42
2022/06/15 11:36:34;;;;;;;3.70;3.40;;;39.30;27.20;;;;;;5094183;28;20512;-41
2022/06/15 11:39:13;;;;;;;4.10;3.70;;;39.20;27.40;;;;;;5094301;28;20468;-41
2022/06/15 11:41:47;;;;;;;4.10;3.70;;;39.50;28.20;;;;;;5094812;28;20396;-43
2022/06/15 11:44:21;;;;;;;4.60;3.80;;;39.50;27.70;;;;;;5097473;28;20430;-41
2022/06/15 11:46:46;;;;;;;4.73;3.90;;;39.80;28.50;;;;;;5097314;28;20493;-40
2022/06/15 11:49:49;;;;;;;3.70;3.40;;;39.80;28.50;;;;;;5095433;28;20435;-41
2022/06/15 11:52:27;;;;;;;4.30;3.90;;;39.60;28.10;;;;;;5095334;28;20329;-40
2022/06/15 11:54:58;;;;;;;3.97;3.67;;;39.40;29.10;;;;;;5093958;28;20529;-39
2022/06/15 11:57:42;;;;;;;4.83;4.43;;;39.60;29.00;;;;;;5094031;28;20429;-41
2022/06/15 12:00:26;;;;;;;4.40;4.03;;;39.90;29.50;;;;;;5093726;28;20474;-41
2022/06/15 12:03:01;;;;;;;4.53;4.13;;;40.40;28.50;;;;;;5093443;28;20517;-41
2022/06/15 12:05:33;;;;;;;3.77;3.47;;;40.70;28.40;;;;;;5091617;28;20699;-40
2022/06/15 12:08:22;;;;;;;4.43;4.13;;;40.90;27.70;;;;;;5094704;28;20717;-39
2022/06/15 12:12:37;;;;;;;5.20;4.80;;;40.80;27.60;;;;;;5094629;28;20432;-42
2022/06/15 12:14:08;;;;;;;4.03;3.73;;;40.90;27.60;;;;;;5095357;28;20880;-41
2022/06/15 12:16:50;;;;;;;4.90;4.50;;;41.00;28.30;;;;;;5094357;28;20477;-41
2022/06/15 12:19:41;;;;;;;4.53;4.13;;;41.20;28.40;;;;;;5094045;28;20454;-42
2022/06/15 12:22:18;;;;;;;5.23;3.67;;;41.40;28.60;;;;;;5096247;28;20764;-41
2022/06/15 12:24:55;;;;;;;4.70;4.30;;;41.50;27.70;;;;;;5096884;28;20415;-40
2022/06/15 12:27:52;;;;;;;4.30;3.90;;;41.30;26.70;;;;;;5079525;28;20438;-41
2022/06/15 12:30:20;;;;;;;4.97;4.30;;;40.40;26.80;;;;;;5097285;28;20587;-39
2022/06/15 12:33:24;;;;;;;5.20;4.20;;;39.70;28.20;;;;;;5095414;28;20446;-43
2022/06/15 12:36:03;;;;;;;4.47;4.07;;;39.60;28.20;;;;;;5096549;28;20828;-41
2022/06/15 12:38:58;;;;;;;3.83;3.53;;;39.90;28.50;;;;;;5094269;28;21013;-41
2022/06/15 12:44:19;;;;;;;4.30;3.90;;;40.10;27.60;;;;;;5094252;28;20727;-40
2022/06/15 12:46:47;;;;;;;6.03;5.10;;;40.10;28.70;;;;;;5091891;28;20471;-41
2022/06/15 12:49:31;;;;;;;5.00;4.60;;;40.10;29.50;;;;;;5091014;28;20505;-42
2022/06/15 12:52:21;;;;;;;6.13;4.47;;;40.40;28.10;;;;;;5091133;28;20427;-42
2022/06/15 12:55:04;;;;;;;4.57;4.27;;;40.50;28.00;;;;;;5094336;28;20521;-40
2022/06/15 12:57:48;;;;;;;5.07;4.10;;;40.60;28.40;;;;;;5092977;28;20431;-43
2022/06/15 13:00:19;;;;;;;4.93;4.50;;;40.90;28.40;;;;;;5093638;28;20516;-39
2022/06/15 13:03:11;;;;;;;4.90;4.50;;;41.10;28.70;;;;;;5094812;28;20586;-40
2022/06/15 13:05:38;;;;;;;6.70;5.67;;;41.30;29.10;;;;;;5095006;28;20400;-43
2022/06/15 13:08:20;;;;;;;5.50;4.87;;;41.60;29.10;;;;;;5075953;28;20443;-44
2022/06/15 13:10:54;;;;;;;6.50;4.80;;;41.70;28.10;;;;;;5093572;28;20410;-42
2022/06/15 13:13:27;;;;;;;6.37;5.10;;;41.60;29.30;;;;;;5092061;28;20514;-40
2022/06/15 13:15:55;;;;;;;6.27;4.83;;;41.60;29.00;;;;;;5090527;28;20516;-43
2022/06/15 13:18:51;;;;;;;5.43;5.03;;;41.70;29.10;;;;;;5087738;28;20420;-42
2022/06/15 13:21:20;;;;;;;4.87;4.47;;;41.60;28.50;;;;;;5089716;28;20419;-41
2022/06/15 13:23:58;;;;;;;6.60;4.50;;;41.70;28.70;;;;;;5088461;28;20424;-39
2022/06/15 13:26:26;;;;;;;5.10;4.70;;;41.80;28.70;;;;;;5089839;28;20487;-40
2022/06/15 13:28:58;;;;;;;5.30;4.80;;;41.70;28.00;;;;;;5074755;28;20428;-41